createdAt,value
2022-11-08T00:00:00.203Z,83.89
2022-11-08T00:02:27.224Z,83.80
2022-11-08T00:04:54.409Z,83.90
2022-11-08T00:07:40.030Z,83.69
2022-11-08T00:10:26.449Z,84.18
2022-11-08T00:13:11.856Z,85.25
2022-11-08T00:15:39.083Z,85.84
2022-11-08T00:18:07.356Z,87.70
2022-11-08T00:20:35.030Z,87.66
2022-11-08T00:23:02.339Z,87.39
2022-11-08T00:25:29.204Z,87.19
2022-11-08T00:27:56.132Z,86.16
2022-11-08T00:30:23.030Z,85.29
2022-11-08T00:32:50.014Z,85.43
2022-11-08T00:35:16.931Z,85.87
2022-11-08T00:37:43.829Z,85.69
2022-11-08T00:40:11.425Z,86.25
2022-11-08T00:42:38.745Z,87.00
2022-11-08T00:45:06.294Z,87.19
2022-11-08T00:47:33.962Z,87.53
2022-11-08T00:50:01.023Z,87.24
2022-11-08T00:52:27.933Z,86.13
2022-11-08T00:54:54.865Z,85.88
2022-11-08T00:57:27.473Z,85.89
2022-11-08T01:00:08.661Z,86.62
2022-11-08T01:02:35.686Z,86.34
2022-11-08T01:05:02.643Z,87.03
2022-11-08T01:07:29.564Z,87.04
2022-11-08T01:09:56.923Z,87.79
2022-11-08T01:12:23.792Z,86.66
2022-11-08T01:14:50.923Z,86.38
2022-11-08T01:17:17.789Z,86.19
2022-11-08T01:19:44.728Z,85.94
2022-11-08T01:22:11.589Z,85.58
2022-11-08T01:24:38.658Z,86.13
2022-11-08T01:27:05.537Z,87.14
2022-11-08T01:29:33.604Z,87.31
2022-11-08T01:32:00.490Z,88.50
2022-11-08T01:34:27.362Z,88.32
2022-11-08T01:36:54.246Z,88.13
2022-11-08T01:39:21.147Z,87.51
2022-11-08T01:41:48.037Z,88.28
2022-11-08T01:44:17.649Z,88.04
2022-11-08T01:46:47.969Z,89.81
2022-11-08T01:49:24.746Z,89.00
2022-11-08T01:52:06.834Z,89.24
2022-11-08T01:55:05.009Z,89.11
2022-11-08T01:57:41.199Z,89.98
2022-11-08T02:00:12.630Z,89.66
2022-11-08T02:02:42.997Z,88.93
2022-11-08T02:05:28.063Z,89.90
2022-11-08T02:11:29.260Z,90.33
2022-11-08T02:14:17.422Z,90.55
2022-11-08T02:17:00.944Z,90.03
2022-11-08T02:20:04.755Z,92.62
2022-11-08T02:23:01.461Z,90.43
2022-11-08T02:25:48.970Z,90.77
2022-11-08T02:28:16.761Z,91.46
2022-11-08T02:30:43.875Z,90.67
2022-11-08T02:33:22.085Z,89.80
2022-11-08T02:35:52.084Z,90.52
2022-11-08T02:38:19.904Z,90.93
2022-11-08T02:40:53.039Z,89.94
2022-11-08T02:43:20.492Z,89.92
2022-11-08T02:45:47.790Z,89.77
2022-11-08T02:48:17.024Z,89.00
2022-11-08T02:50:44.618Z,89.01
2022-11-08T02:53:12.191Z,87.94
2022-11-08T02:55:39.281Z,88.03
2022-11-08T02:58:06.219Z,88.19
2022-11-08T03:00:33.156Z,88.42
2022-11-08T03:03:00.431Z,88.37
2022-11-08T03:05:28.408Z,88.68
2022-11-08T03:07:56.324Z,88.90
2022-11-08T03:10:25.122Z,89.12
2022-11-08T03:13:03.496Z,88.85
2022-11-08T03:15:30.753Z,89.61
2022-11-08T03:17:58.793Z,89.24
2022-11-08T03:20:32.220Z,89.29
2022-11-08T03:23:02.172Z,88.92
2022-11-08T03:25:29.531Z,89.75
2022-11-08T03:27:56.579Z,89.37
2022-11-08T03:30:23.532Z,90.00
2022-11-08T03:32:50.450Z,89.27
2022-11-08T03:35:17.613Z,89.20
2022-11-08T03:37:55.107Z,88.66
2022-11-08T03:40:22.728Z,89.49
2022-11-08T03:42:49.988Z,89.29
2022-11-08T03:45:17.515Z,89.80
2022-11-08T03:47:46.554Z,89.63
2022-11-08T03:50:16.285Z,90.77
2022-11-08T03:52:44.872Z,89.17
2022-11-08T03:55:12.849Z,88.80
2022-11-08T03:57:41.210Z,89.13
2022-11-08T04:00:10.742Z,88.84
2022-11-08T04:02:37.859Z,89.11
2022-11-08T04:05:06.038Z,89.25
2022-11-08T04:07:33.194Z,88.63
2022-11-08T04:10:00.219Z,88.71
2022-11-08T04:12:45.491Z,88.64
2022-11-08T04:15:19.894Z,89.11
2022-11-08T04:18:09.120Z,89.01
2022-11-08T04:21:01.834Z,89.49
2022-11-08T04:23:30.209Z,90.09
2022-11-08T04:25:59.955Z,90.82
2022-11-08T04:28:29.303Z,91.32
2022-11-08T04:30:58.194Z,91.56
2022-11-08T04:33:25.883Z,91.18
2022-11-08T04:35:54.353Z,90.94
2022-11-08T04:38:22.256Z,90.88
2022-11-08T04:40:49.172Z,90.87
2022-11-08T04:43:16.148Z,89.40
2022-11-08T04:45:43.039Z,88.07
2022-11-08T04:48:10.498Z,88.39
2022-11-08T04:50:37.549Z,88.33
2022-11-08T04:53:04.499Z,88.78
2022-11-08T04:55:31.406Z,88.92
2022-11-08T04:57:59.332Z,88.62
2022-11-08T05:00:27.190Z,88.04
2022-11-08T05:02:54.454Z,88.71
2022-11-08T05:05:22.912Z,89.23
2022-11-08T05:07:49.997Z,88.46
2022-11-08T05:10:17.030Z,88.72
2022-11-08T05:12:43.974Z,88.18
2022-11-08T05:15:11.515Z,89.13
2022-11-08T05:17:38.464Z,88.75
2022-11-08T05:20:25.087Z,89.52
2022-11-08T05:23:10.407Z,89.29
2022-11-08T05:25:41.221Z,89.02
2022-11-08T05:28:08.133Z,88.51
2022-11-08T05:30:35.073Z,88.74
2022-11-08T05:33:02.022Z,87.96
2022-11-08T05:35:28.880Z,88.45
2022-11-08T05:37:55.803Z,88.39
2022-11-08T05:40:22.655Z,89.15
2022-11-08T05:42:49.520Z,89.36
2022-11-08T05:45:16.513Z,88.88
2022-11-08T05:47:46.657Z,88.39
2022-11-08T05:50:19.129Z,87.99
2022-11-08T05:52:46.335Z,87.28
2022-11-08T05:55:13.269Z,87.02
2022-11-08T05:57:43.746Z,87.14
2022-11-08T06:00:12.356Z,88.03
2022-11-08T06:02:40.071Z,89.33
2022-11-08T06:05:08.297Z,89.26
2022-11-08T06:07:35.536Z,89.63
2022-11-08T06:10:03.092Z,89.37
2022-11-08T06:12:30.087Z,89.61
2022-11-08T06:14:57.315Z,88.85
2022-11-08T06:17:26.360Z,89.73
2022-11-08T06:19:56.079Z,88.37
2022-11-08T06:22:23.164Z,88.20
2022-11-08T06:24:50.071Z,87.94
2022-11-08T06:27:17.038Z,87.30
2022-11-08T06:29:43.932Z,87.35
2022-11-08T06:32:11.324Z,88.17
2022-11-08T06:34:38.389Z,87.34
2022-11-08T06:37:05.608Z,87.93
2022-11-08T06:39:32.635Z,87.04
2022-11-08T06:42:01.159Z,87.28
2022-11-08T06:44:28.146Z,86.97
2022-11-08T06:46:57.864Z,87.20
2022-11-08T06:49:24.777Z,86.96
2022-11-08T06:51:52.605Z,86.87
2022-11-08T06:54:23.254Z,86.36
2022-11-08T06:56:55.972Z,86.50
2022-11-08T06:59:23.486Z,86.71
2022-11-08T07:01:50.625Z,87.24
2022-11-08T07:04:17.733Z,86.83
2022-11-08T07:06:44.643Z,87.72
2022-11-08T07:09:11.638Z,87.81
2022-11-08T07:11:38.757Z,87.90
2022-11-08T07:14:05.913Z,87.89
2022-11-08T07:16:33.005Z,87.48
2022-11-08T07:18:59.868Z,88.32
2022-11-08T07:21:26.777Z,88.28
2022-11-08T07:23:53.701Z,88.95
2022-11-08T07:26:20.717Z,88.72
2022-11-08T07:28:47.605Z,89.08
2022-11-08T07:31:14.583Z,88.14
2022-11-08T07:33:41.530Z,88.04
2022-11-08T07:36:08.813Z,87.95
2022-11-08T07:38:35.722Z,88.18
2022-11-08T07:41:02.717Z,87.76
2022-11-08T07:43:30.474Z,88.40
2022-11-08T07:46:00.934Z,89.44
2022-11-08T07:48:29.620Z,89.28
2022-11-08T07:50:56.619Z,89.00
2022-11-08T07:53:23.920Z,88.13
2022-11-08T07:55:50.912Z,87.79
2022-11-08T07:58:18.083Z,87.43
2022-11-08T08:00:45.824Z,86.96
2022-11-08T08:03:14.846Z,85.86
2022-11-08T08:05:46.053Z,85.58
2022-11-08T08:08:14.433Z,85.48
2022-11-08T08:10:42.133Z,85.98
2022-11-08T08:13:09.742Z,85.05
2022-11-08T08:15:36.854Z,84.99
2022-11-08T08:18:06.137Z,84.03
2022-11-08T08:20:33.551Z,84.56
2022-11-08T08:23:01.518Z,83.73
2022-11-08T08:25:31.179Z,82.67
2022-11-08T08:28:01.015Z,81.90
2022-11-08T08:30:29.972Z,80.81
2022-11-08T08:33:32.448Z,79.85
2022-11-08T08:36:02.119Z,79.06
2022-11-08T08:38:30.308Z,79.35
2022-11-08T08:40:57.574Z,77.86
2022-11-08T08:43:24.831Z,76.58
2022-11-08T08:45:51.783Z,76.19
2022-11-08T08:48:18.750Z,75.37
2022-11-08T08:50:45.667Z,75.09
2022-11-08T08:53:13.406Z,74.04
2022-11-08T08:55:40.649Z,74.12
2022-11-08T08:58:07.627Z,73.18
2022-11-08T09:03:22.089Z,70.57
2022-11-08T09:05:49.183Z,70.70
2022-11-08T09:08:16.187Z,70.97
2022-11-08T09:10:43.494Z,70.68
2022-11-08T09:13:10.576Z,69.49
2022-11-08T09:15:39.647Z,69.50
2022-11-08T09:18:07.070Z,69.39
2022-11-08T09:20:34.239Z,70.08
2022-11-08T09:23:04.335Z,68.25
2022-11-08T09:25:31.885Z,68.26
2022-11-08T09:27:58.819Z,69.47
2022-11-08T09:30:26.743Z,67.02
2022-11-08T09:33:00.679Z,68.70
2022-11-08T09:35:29.530Z,66.98
2022-11-08T09:37:57.429Z,66.31
2022-11-08T09:40:36.755Z,66.90
2022-11-08T09:43:18.300Z,66.16
2022-11-08T09:45:48.181Z,66.45
2022-11-08T09:48:26.948Z,67.93
2022-11-08T09:50:57.154Z,67.27
2022-11-08T09:53:49.551Z,66.83
2022-11-08T09:56:23.792Z,64.71
2022-11-08T09:59:02.165Z,64.27
2022-11-08T10:01:34.930Z,64.11
2022-11-08T10:04:16.464Z,64.65
2022-11-08T10:07:10.560Z,62.10
2022-11-08T10:09:47.413Z,63.56
2022-11-08T10:12:17.109Z,62.90
2022-11-08T10:14:52.309Z,61.86
2022-11-08T10:17:31.684Z,61.17
2022-11-08T10:20:16.652Z,61.65
2022-11-08T10:23:08.030Z,60.93
2022-11-08T10:25:45.703Z,61.63
2022-11-08T10:28:22.290Z,59.93
2022-11-08T10:30:51.900Z,60.44
2022-11-08T10:33:31.079Z,59.52
2022-11-08T10:36:35.854Z,58.99
2022-11-08T10:39:29.115Z,57.91
2022-11-08T10:42:08.281Z,58.15
2022-11-08T10:44:36.815Z,58.94
2022-11-08T10:47:10.932Z,58.49
2022-11-08T10:49:42.123Z,57.69
2022-11-08T10:52:11.791Z,57.20
2022-11-08T10:54:48.035Z,57.29
2022-11-08T10:57:25.999Z,57.16
2022-11-08T10:59:54.087Z,57.12
2022-11-08T11:02:29.493Z,56.32
2022-11-08T11:05:16.412Z,57.96
2022-11-08T11:08:02.098Z,56.42
2022-11-08T11:10:29.192Z,56.28
2022-11-08T11:13:19.153Z,55.11
2022-11-08T11:15:48.321Z,56.17
2022-11-08T11:18:34.818Z,55.83
2022-11-08T11:21:07.112Z,54.77
2022-11-08T11:23:52.364Z,54.83
2022-11-08T11:26:34.792Z,54.98
2022-11-08T11:29:04.480Z,56.34
2022-11-08T11:31:42.695Z,55.25
2022-11-08T11:34:18.600Z,54.76
2022-11-08T11:36:51.460Z,54.65
2022-11-08T11:39:33.473Z,55.03
2022-11-08T11:42:31.106Z,54.09
2022-11-08T11:45:02.633Z,54.78
2022-11-08T11:47:47.175Z,54.29
2022-11-08T11:50:36.725Z,54.85
2022-11-08T11:53:13.381Z,55.13
2022-11-08T11:56:06.130Z,53.88
2022-11-08T11:58:48.041Z,53.29
2022-11-08T12:01:52.899Z,52.68
2022-11-08T12:04:41.391Z,54.25
2022-11-08T12:07:22.273Z,55.00
2022-11-08T12:10:18.557Z,54.53
2022-11-08T12:12:51.222Z,53.53
2022-11-08T12:15:27.375Z,54.07
2022-11-08T12:18:41.625Z,52.75
2022-11-08T12:21:28.820Z,51.85
2022-11-08T12:24:25.152Z,51.36
2022-11-08T12:27:01.812Z,51.81
2022-11-08T12:29:49.820Z,50.69
2022-11-08T12:32:42.579Z,50.25
2022-11-08T12:35:21.305Z,49.67
2022-11-08T12:37:55.068Z,51.77
2022-11-08T12:40:33.995Z,50.75
2022-11-08T12:43:34.941Z,49.20
2022-11-08T12:46:16.736Z,50.64
2022-11-08T12:48:49.433Z,50.63
2022-11-08T12:51:37.448Z,49.53
2022-11-08T12:54:18.202Z,50.09
2022-11-08T12:56:48.651Z,49.12
2022-11-08T12:59:21.393Z,50.02
2022-11-08T13:01:49.409Z,50.29
2022-11-08T13:04:38.099Z,50.26
2022-11-08T13:07:17.069Z,50.77
2022-11-08T13:10:01.092Z,50.09
2022-11-08T13:12:47.040Z,50.20
2022-11-08T13:15:20.968Z,51.18
2022-11-08T13:18:24.948Z,50.90
2022-11-08T13:20:52.089Z,50.49
2022-11-08T13:23:27.797Z,49.70
2022-11-08T13:25:55.528Z,49.33
2022-11-08T13:28:43.783Z,50.18
2022-11-08T13:31:22.835Z,49.59
2022-11-08T13:34:42.381Z,51.60
2022-11-08T13:37:25.175Z,50.39
2022-11-08T13:40:08.799Z,51.03
2022-11-08T13:42:35.704Z,51.33
2022-11-08T13:45:24.755Z,50.30
2022-11-08T13:47:55.166Z,50.95
2022-11-08T13:50:38.771Z,50.83
2022-11-08T13:53:09.425Z,51.37
2022-11-08T13:55:42.207Z,52.35
2022-11-08T13:58:33.491Z,51.69
2022-11-08T14:01:02.297Z,53.13
2022-11-08T14:03:35.380Z,53.03
2022-11-08T14:06:46.415Z,53.77
2022-11-08T14:09:22.047Z,53.95
2022-11-08T14:12:05.150Z,54.53
2022-11-08T14:14:44.823Z,54.16
2022-11-08T14:17:47.327Z,54.28
2022-11-08T14:20:17.123Z,54.34
2022-11-08T14:22:49.882Z,55.00
2022-11-08T14:25:39.940Z,55.07
2022-11-08T14:28:31.496Z,55.42
2022-11-08T14:31:00.491Z,56.48
2022-11-08T14:33:30.546Z,56.79
2022-11-08T14:36:09.400Z,57.27
2022-11-08T14:38:45.504Z,57.28
2022-11-08T14:41:17.399Z,57.92
2022-11-08T14:43:46.383Z,57.68
2022-11-08T14:46:16.670Z,59.06
2022-11-08T14:48:59.822Z,58.82
2022-11-08T14:51:26.863Z,59.29
2022-11-08T14:53:55.491Z,59.35
2022-11-08T14:56:37.928Z,60.97
2022-11-08T14:59:07.150Z,60.27
2022-11-08T15:01:38.669Z,61.59
2022-11-08T15:04:16.562Z,61.91
2022-11-08T15:06:52.134Z,61.70
2022-11-08T15:09:32.668Z,61.53
2022-11-08T15:12:07.921Z,62.03
2022-11-08T15:14:37.127Z,62.81
2022-11-08T15:17:04.218Z,63.93
2022-11-08T15:19:43.251Z,64.23
2022-11-08T15:22:32.804Z,64.30
2022-11-08T15:25:19.413Z,65.89
2022-11-08T15:27:51.294Z,66.71
2022-11-08T15:30:23.496Z,67.67
2022-11-08T15:32:50.918Z,68.15
2022-11-08T15:35:31.081Z,69.04
2022-11-08T15:38:25.763Z,68.91
2022-11-08T15:40:55.642Z,69.04
2022-11-08T15:43:31.786Z,69.82
2022-11-08T15:46:00.610Z,69.60
2022-11-08T15:48:28.247Z,69.96
2022-11-08T15:50:58.187Z,70.87
2022-11-08T15:53:26.957Z,70.75
2022-11-08T15:56:03.096Z,72.38
2022-11-08T15:58:45.292Z,72.31
2022-11-08T16:01:20.475Z,73.22
2022-11-08T16:03:48.622Z,72.82
2022-11-08T16:06:15.793Z,73.57
2022-11-08T16:08:43.043Z,72.96
2022-11-08T16:11:22.787Z,73.65
2022-11-08T16:13:51.584Z,73.54
2022-11-08T16:16:18.696Z,72.17
2022-11-08T16:18:45.841Z,74.65
2022-11-08T16:21:14.178Z,73.75
2022-11-08T16:23:41.540Z,73.59
2022-11-08T16:26:16.211Z,73.77
2022-11-08T16:28:43.728Z,74.25
2022-11-08T16:31:16.085Z,73.98
2022-11-08T16:33:45.105Z,74.62
2022-11-08T16:36:19.582Z,73.68
2022-11-08T16:38:54.635Z,73.57
2022-11-08T16:41:23.681Z,72.61
2022-11-08T16:43:50.988Z,72.29
2022-11-08T16:46:21.194Z,71.89
2022-11-08T16:49:05.497Z,71.24
2022-11-08T16:51:40.974Z,71.28
2022-11-08T16:54:34.891Z,71.22
2022-11-08T16:57:28.340Z,70.35
2022-11-08T16:59:48.722Z,71.04
2022-11-08T17:02:30.729Z,71.18
2022-11-08T17:04:57.666Z,70.34
2022-11-08T17:07:26.326Z,70.23
2022-11-08T17:09:53.722Z,70.39
2022-11-08T17:12:22.163Z,69.81
2022-11-08T17:14:49.123Z,70.06
2022-11-08T17:17:16.216Z,70.02
2022-11-08T17:19:43.206Z,69.82
2022-11-08T17:22:10.145Z,70.24
2022-11-08T17:24:37.120Z,69.85
2022-11-08T17:27:04.074Z,70.17
2022-11-08T17:29:30.972Z,70.07
2022-11-08T17:31:57.859Z,70.20
2022-11-08T17:34:25.760Z,69.88
2022-11-08T17:36:53.211Z,69.92
2022-11-08T17:39:20.189Z,70.13
2022-11-08T17:41:47.202Z,70.13
2022-11-08T17:44:14.883Z,70.79
2022-11-08T17:46:41.844Z,70.57
2022-11-08T17:49:08.985Z,70.84
2022-11-08T17:51:36.863Z,71.40
2022-11-08T17:54:03.977Z,71.83
2022-11-08T17:56:31.264Z,71.66
2022-11-08T17:58:58.214Z,72.20
2022-11-08T18:01:25.321Z,72.09
2022-11-08T18:03:52.399Z,72.95
2022-11-08T18:06:19.413Z,72.52
2022-11-08T18:08:46.407Z,71.49
2022-11-08T18:11:13.348Z,72.23
2022-11-08T18:13:40.279Z,72.03
2022-11-08T18:16:22.319Z,71.88
2022-11-08T18:18:50.249Z,72.15
2022-11-08T18:21:18.467Z,72.10
2022-11-08T18:23:47.756Z,72.58
2022-11-08T18:26:16.966Z,72.05
2022-11-08T18:28:44.810Z,72.25
2022-11-08T18:31:18.391Z,72.38
2022-11-08T18:33:46.059Z,73.14
2022-11-08T18:36:21.393Z,73.03
2022-11-08T18:38:49.439Z,72.79
2022-11-08T18:41:31.018Z,73.19
2022-11-08T18:44:00.425Z,73.43
2022-11-08T18:46:29.420Z,73.24
2022-11-08T18:48:56.338Z,73.39
2022-11-08T18:51:24.025Z,73.87
2022-11-08T18:53:52.655Z,74.43
2022-11-08T18:56:19.920Z,74.59
2022-11-08T18:58:47.079Z,73.71
2022-11-08T19:01:14.995Z,75.57
2022-11-08T19:03:42.549Z,75.49
2022-11-08T19:06:09.796Z,74.64
2022-11-08T19:08:37.278Z,75.01
2022-11-08T19:11:08.324Z,76.30
2022-11-08T19:13:37.493Z,76.72
2022-11-08T19:16:14.317Z,77.01
2022-11-08T19:18:42.512Z,77.87
2022-11-08T19:21:21.851Z,76.83
2022-11-08T19:23:49.709Z,77.18
2022-11-08T19:26:22.157Z,78.10
2022-11-08T19:28:50.386Z,78.24
2022-11-08T19:31:19.746Z,77.07
2022-11-08T19:33:48.134Z,77.11
2022-11-08T19:36:20.346Z,76.34
2022-11-08T19:38:47.421Z,78.01
2022-11-08T19:41:18.784Z,77.71
2022-11-08T19:43:47.488Z,78.61
2022-11-08T19:46:17.280Z,78.86
2022-11-08T19:48:46.305Z,78.43
2022-11-08T19:51:18.938Z,78.33
2022-11-08T19:53:46.950Z,77.85
2022-11-08T19:56:21.756Z,79.25
2022-11-08T19:58:50.967Z,78.92
2022-11-08T20:01:26.905Z,78.28
2022-11-08T20:03:53.862Z,79.46
2022-11-08T20:06:21.528Z,80.21
2022-11-08T20:08:50.561Z,81.08
2022-11-08T20:11:21.206Z,82.37
2022-11-08T20:13:48.256Z,82.37
2022-11-08T20:16:27.839Z,80.92
2022-11-08T20:18:56.571Z,79.86
2022-11-08T20:21:23.654Z,80.10
2022-11-08T20:23:50.561Z,80.74
2022-11-08T20:26:23.347Z,80.48
2022-11-08T20:28:56.384Z,80.64
2022-11-08T20:31:25.149Z,81.57
2022-11-08T20:33:53.827Z,82.09
2022-11-08T20:36:23.627Z,82.21
2022-11-08T20:38:54.897Z,81.77
2022-11-08T20:41:21.842Z,81.87
2022-11-08T20:43:48.764Z,81.46
2022-11-08T20:46:19.540Z,83.06
2022-11-08T20:48:51.705Z,83.49
2022-11-08T20:51:20.417Z,83.94
2022-11-08T20:53:48.685Z,84.16
2022-11-08T20:56:18.020Z,86.04
2022-11-08T20:58:46.326Z,85.54
2022-11-08T21:01:16.811Z,85.83
2022-11-08T21:03:45.848Z,85.99
2022-11-08T21:06:15.558Z,85.37
2022-11-08T21:09:00.659Z,85.41
2022-11-08T21:11:30.627Z,86.11
2022-11-08T21:13:59.081Z,85.51
2022-11-08T21:16:30.893Z,85.48
2022-11-08T21:19:00.348Z,86.04
2022-11-08T21:21:27.692Z,86.93
2022-11-08T21:23:54.924Z,87.69
2022-11-08T21:26:22.690Z,86.55
2022-11-08T21:28:49.665Z,88.00
2022-11-08T21:31:16.572Z,87.19
2022-11-08T21:33:43.955Z,86.00
2022-11-08T21:36:10.975Z,87.61
2022-11-08T21:38:39.254Z,87.33
2022-11-08T21:41:08.763Z,87.18
2022-11-08T21:43:43.167Z,87.72
2022-11-08T21:46:24.988Z,88.58
2022-11-08T21:49:00.299Z,87.61
2022-11-08T21:51:29.559Z,88.72
2022-11-08T21:53:58.000Z,87.93
2022-11-08T21:56:28.210Z,87.32
2022-11-08T21:58:55.598Z,87.72
2022-11-08T22:01:28.614Z,88.23
2022-11-08T22:03:57.445Z,88.04
2022-11-08T22:06:24.341Z,88.75
2022-11-08T22:08:51.623Z,89.80
2022-11-08T22:11:18.987Z,89.30
2022-11-08T22:13:45.888Z,89.01
2022-11-08T22:16:13.116Z,88.63
2022-11-08T22:19:03.592Z,88.38
2022-11-08T22:21:40.684Z,87.89
2022-11-08T22:24:22.728Z,88.55
2022-11-08T22:26:51.355Z,88.71
2022-11-08T22:29:18.415Z,89.13
2022-11-08T22:31:45.751Z,89.29
2022-11-08T22:34:12.836Z,89.16
2022-11-08T22:36:45.241Z,88.67
2022-11-08T22:39:18.968Z,89.00
2022-11-08T22:41:47.216Z,88.95
2022-11-08T22:44:15.427Z,89.42
2022-11-08T22:46:43.531Z,88.82
2022-11-08T22:49:12.309Z,87.41
2022-11-08T22:51:40.141Z,88.05
2022-11-08T22:54:08.029Z,88.78
2022-11-08T22:56:36.186Z,88.02
2022-11-08T22:59:03.708Z,89.23
2022-11-08T23:01:30.687Z,89.32
2022-11-08T23:03:57.599Z,89.08
2022-11-08T23:06:24.499Z,88.92
2022-11-08T23:08:51.594Z,88.35
2022-11-08T23:11:37.455Z,89.33
2022-11-08T23:14:23.288Z,88.80
2022-11-08T23:16:50.327Z,89.58
2022-11-08T23:19:39.336Z,89.47
2022-11-08T23:22:27.994Z,88.65
2022-11-08T23:24:54.914Z,88.50
2022-11-08T23:27:40.308Z,88.02
2022-11-08T23:30:26.926Z,89.11
2022-11-08T23:32:53.859Z,88.98
2022-11-08T23:35:21.688Z,88.63
2022-11-08T23:37:49.093Z,89.50
2022-11-08T23:40:36.460Z,89.97
2022-11-08T23:43:30.987Z,89.99
2022-11-08T23:46:04.021Z,90.34
2022-11-08T23:48:30.963Z,90.30
2022-11-08T23:50:57.874Z,90.50
2022-11-08T23:53:27.782Z,89.51
2022-11-08T23:55:54.688Z,89.86
2022-11-08T23:58:22.271Z,90.18
